createdAt,value
2024-03-27T00:00:12.867Z,80.60
2024-03-27T00:02:41.901Z,80.01
2024-03-27T00:05:10.576Z,79.67
2024-03-27T00:07:39.363Z,79.54
2024-03-27T00:10:09.417Z,79.33
2024-03-27T00:12:38.066Z,79.16
2024-03-27T00:15:07.618Z,79.08
2024-03-27T00:17:36.551Z,79.08
2024-03-27T00:20:10.007Z,78.79
2024-03-27T00:22:38.884Z,78.73
2024-03-27T00:25:08.131Z,78.36
2024-03-27T00:27:36.818Z,78.41
2024-03-27T00:30:07.358Z,78.39
2024-03-27T00:32:36.986Z,78.43
2024-03-27T00:35:06.024Z,78.60
2024-03-27T00:37:34.551Z,78.80
2024-03-27T00:40:04.272Z,78.87
2024-03-27T00:42:33.304Z,78.90
2024-03-27T00:45:02.343Z,79.25
2024-03-27T00:47:30.934Z,79.03
2024-03-27T00:49:59.642Z,79.09
2024-03-27T00:52:27.901Z,79.45
2024-03-27T00:54:56.728Z,79.53
2024-03-27T00:57:26.497Z,79.47
2024-03-27T00:59:55.299Z,79.67
2024-03-27T01:02:23.860Z,79.20
2024-03-27T01:04:52.542Z,79.42
2024-03-27T01:07:20.748Z,79.11
2024-03-27T01:09:50.664Z,79.26
2024-03-27T01:12:19.105Z,79.10
2024-03-27T01:14:47.811Z,78.75
2024-03-27T01:17:16.297Z,78.70
2024-03-27T01:19:45.017Z,78.92
2024-03-27T01:22:13.455Z,79.11
2024-03-27T01:24:42.473Z,78.92
2024-03-27T01:27:11.397Z,79.26
2024-03-27T01:29:40.341Z,79.58
2024-03-27T01:32:09.137Z,79.19
2024-03-27T01:34:37.588Z,79.44
2024-03-27T01:37:06.181Z,79.51
2024-03-27T01:39:34.574Z,79.18
2024-03-27T01:42:03.050Z,79.58
2024-03-27T01:44:33.051Z,79.58
2024-03-27T01:47:01.613Z,79.45
2024-03-27T01:49:34.041Z,79.47
2024-03-27T01:52:05.780Z,79.60
2024-03-27T01:54:35.392Z,79.82
2024-03-27T01:57:05.830Z,79.98
2024-03-27T01:59:36.382Z,80.09
2024-03-27T02:02:07.527Z,80.04
2024-03-27T02:04:35.973Z,80.42
2024-03-27T02:07:04.902Z,80.16
2024-03-27T02:09:33.829Z,80.45
2024-03-27T02:12:02.334Z,80.58
2024-03-27T02:14:35.531Z,80.75
2024-03-27T02:17:16.236Z,80.77
2024-03-27T02:19:50.804Z,80.86
2024-03-27T02:22:21.591Z,80.84
2024-03-27T02:24:57.469Z,80.83
2024-03-27T02:27:25.780Z,80.88
2024-03-27T02:29:54.691Z,80.95
2024-03-27T02:32:23.350Z,81.27
2024-03-27T02:34:53.065Z,81.02
2024-03-27T02:37:21.019Z,81.26
2024-03-27T02:39:49.409Z,80.94
2024-03-27T02:42:18.503Z,80.67
2024-03-27T02:44:47.092Z,80.73
2024-03-27T02:47:16.604Z,80.57
2024-03-27T02:49:45.065Z,80.67
2024-03-27T02:52:13.143Z,80.24
2024-03-27T02:54:41.833Z,80.47
2024-03-27T02:57:12.786Z,80.40
2024-03-27T02:59:42.174Z,80.20
2024-03-27T03:02:11.185Z,80.13
2024-03-27T03:04:39.555Z,80.32
2024-03-27T03:07:08.968Z,80.08
2024-03-27T03:09:37.475Z,80.24
2024-03-27T03:12:09.191Z,80.33
2024-03-27T03:14:37.668Z,80.38
2024-03-27T03:17:09.569Z,80.38
2024-03-27T03:19:38.030Z,80.19
2024-03-27T03:22:34.446Z,80.08
2024-03-27T03:25:02.622Z,79.96
2024-03-27T03:27:34.498Z,79.72
2024-03-27T03:30:06.044Z,80.00
2024-03-27T03:32:34.541Z,79.68
2024-03-27T03:35:02.715Z,79.86
2024-03-27T03:37:31.798Z,79.66
2024-03-27T03:40:02.337Z,79.81
2024-03-27T03:42:30.524Z,79.55
2024-03-27T03:44:58.668Z,79.25
2024-03-27T03:47:29.490Z,79.42
2024-03-27T03:50:00.284Z,79.39
2024-03-27T03:52:28.703Z,79.31
2024-03-27T03:54:57.097Z,79.32
2024-03-27T03:57:28.274Z,79.37
2024-03-27T03:59:56.927Z,79.50
2024-03-27T04:02:25.712Z,79.67
2024-03-27T04:04:54.939Z,79.71
2024-03-27T04:07:24.017Z,79.57
2024-03-27T04:09:52.454Z,79.70
2024-03-27T04:12:23.179Z,79.55
2024-03-27T04:14:53.845Z,79.56
2024-03-27T04:17:23.404Z,79.52
2024-03-27T04:19:52.675Z,79.47
2024-03-27T04:22:24.928Z,79.35
2024-03-27T04:24:54.153Z,79.57
2024-03-27T04:27:22.663Z,79.60
2024-03-27T04:29:55.634Z,79.93
2024-03-27T04:32:27.079Z,79.65
2024-03-27T04:34:55.345Z,79.77
2024-03-27T04:37:23.944Z,80.05
2024-03-27T04:39:53.010Z,80.56
2024-03-27T04:42:22.339Z,80.70
2024-03-27T04:44:50.596Z,81.14
2024-03-27T04:47:18.653Z,81.28
2024-03-27T04:49:48.778Z,81.51
2024-03-27T04:52:17.392Z,81.86
2024-03-27T04:54:48.020Z,81.84
2024-03-27T04:57:17.777Z,81.96
2024-03-27T04:59:47.111Z,82.22
2024-03-27T05:02:15.631Z,81.92
2024-03-27T05:04:43.780Z,81.71
2024-03-27T05:07:12.143Z,82.19
2024-03-27T05:09:41.099Z,82.02
2024-03-27T05:12:11.978Z,82.71
2024-03-27T05:14:40.751Z,83.00
2024-03-27T05:17:09.867Z,83.08
2024-03-27T05:19:39.394Z,83.30
2024-03-27T05:22:08.155Z,83.43
2024-03-27T05:24:36.332Z,83.53
2024-03-27T05:27:05.281Z,83.43
2024-03-27T05:29:33.692Z,83.57
2024-03-27T05:32:02.997Z,83.78
2024-03-27T05:34:31.165Z,83.30
2024-03-27T05:37:00.394Z,83.58
2024-03-27T05:39:29.704Z,83.24
2024-03-27T05:41:58.261Z,83.38
2024-03-27T05:44:27.122Z,83.39
2024-03-27T05:46:55.636Z,83.87
2024-03-27T05:49:24.610Z,84.04
2024-03-27T05:51:53.095Z,84.45
2024-03-27T05:54:21.393Z,83.94
2024-03-27T05:56:51.169Z,84.38
2024-03-27T05:59:20.389Z,84.38
2024-03-27T06:01:48.737Z,84.36
2024-03-27T06:04:17.355Z,84.10
2024-03-27T06:06:46.223Z,84.48
2024-03-27T06:09:14.626Z,84.66
2024-03-27T06:11:44.749Z,84.49
2024-03-27T06:14:13.334Z,84.52
2024-03-27T06:16:41.819Z,85.07
2024-03-27T06:19:10.584Z,85.37
2024-03-27T06:21:38.992Z,85.07
2024-03-27T06:24:07.997Z,85.11
2024-03-27T06:26:36.750Z,85.00
2024-03-27T06:29:04.942Z,85.64
2024-03-27T06:31:33.099Z,85.71
2024-03-27T06:34:01.575Z,85.42
2024-03-27T06:36:30.090Z,85.41
2024-03-27T06:38:58.863Z,84.91
2024-03-27T06:41:27.866Z,85.01
2024-03-27T06:43:56.502Z,85.09
2024-03-27T06:46:26.460Z,84.94
2024-03-27T06:48:58.306Z,84.90
2024-03-27T06:51:26.802Z,85.09
2024-03-27T06:53:56.378Z,85.23
2024-03-27T06:56:25.390Z,85.16
2024-03-27T06:58:53.876Z,85.46
2024-03-27T07:01:25.006Z,85.40
2024-03-27T07:03:54.508Z,85.70
2024-03-27T07:06:23.157Z,85.82
2024-03-27T07:08:51.797Z,86.07
2024-03-27T07:11:20.672Z,86.51
2024-03-27T07:13:49.377Z,86.51
2024-03-27T07:16:17.914Z,86.68
2024-03-27T07:18:47.413Z,87.24
2024-03-27T07:21:15.636Z,87.35
2024-03-27T07:23:44.100Z,88.38
2024-03-27T07:26:14.386Z,88.24
2024-03-27T07:28:42.809Z,88.39
2024-03-27T07:31:11.079Z,88.12
2024-03-27T07:33:39.460Z,88.22
2024-03-27T07:36:08.073Z,88.74
2024-03-27T07:38:36.764Z,88.91
2024-03-27T07:41:06.151Z,88.69
2024-03-27T07:43:34.829Z,88.67
2024-03-27T07:46:07.491Z,88.45
2024-03-27T07:48:36.429Z,88.91
2024-03-27T07:51:05.196Z,88.96
2024-03-27T07:53:33.558Z,88.50
2024-03-27T07:56:05.313Z,88.48
2024-03-27T07:58:33.611Z,88.80
2024-03-27T08:01:02.304Z,88.74
2024-03-27T08:03:32.422Z,88.84
2024-03-27T08:06:00.659Z,88.79
2024-03-27T08:08:29.362Z,88.45
2024-03-27T08:11:05.218Z,88.72
2024-03-27T08:13:34.878Z,88.68
2024-03-27T08:16:04.395Z,88.80
2024-03-27T08:18:43.636Z,88.63
2024-03-27T08:21:13.067Z,88.68
2024-03-27T08:23:41.672Z,88.62
2024-03-27T08:26:10.496Z,88.65
2024-03-27T08:28:39.438Z,88.44
2024-03-27T08:31:07.708Z,88.44
2024-03-27T08:33:36.300Z,88.36
2024-03-27T08:36:09.489Z,88.39
2024-03-27T08:38:40.657Z,88.44
2024-03-27T08:41:10.743Z,88.43
2024-03-27T08:43:39.231Z,88.18
2024-03-27T08:46:07.711Z,88.48
2024-03-27T08:48:37.253Z,88.15
2024-03-27T08:51:07.784Z,87.87
2024-03-27T08:53:37.331Z,88.34
2024-03-27T08:56:07.859Z,87.81
2024-03-27T08:58:38.253Z,87.48
2024-03-27T09:01:06.796Z,87.35
2024-03-27T09:03:35.791Z,87.20
2024-03-27T09:06:05.023Z,87.07
2024-03-27T09:08:34.182Z,87.54
2024-03-27T09:11:03.696Z,87.36
2024-03-27T09:13:31.848Z,87.39
2024-03-27T09:16:01.053Z,87.20
2024-03-27T09:18:31.491Z,87.43
2024-03-27T09:21:02.326Z,87.70
2024-03-27T09:23:34.328Z,87.83
2024-03-27T09:26:04.891Z,88.16
2024-03-27T09:28:33.493Z,88.47
2024-03-27T09:31:05.616Z,88.36
2024-03-27T09:33:33.740Z,88.49
2024-03-27T09:36:04.442Z,88.28
2024-03-27T09:38:34.915Z,88.22
2024-03-27T09:41:04.599Z,88.68
2024-03-27T09:43:34.517Z,88.45
2024-03-27T09:46:03.296Z,88.34
2024-03-27T09:48:33.174Z,88.42
2024-03-27T09:51:08.706Z,88.94
2024-03-27T09:53:45.387Z,88.63
2024-03-27T09:56:14.249Z,88.76
2024-03-27T09:58:44.167Z,88.55
2024-03-27T10:01:14.692Z,88.54
2024-03-27T10:03:43.807Z,88.87
2024-03-27T10:06:11.836Z,88.75
2024-03-27T10:08:40.547Z,88.77
2024-03-27T10:11:10.640Z,88.68
2024-03-27T10:13:38.952Z,87.96
2024-03-27T10:16:10.615Z,88.06
2024-03-27T10:18:42.842Z,88.32
2024-03-27T10:21:11.370Z,88.46
2024-03-27T10:23:40.021Z,88.28
2024-03-27T10:26:08.278Z,88.36
2024-03-27T10:28:37.328Z,88.41
2024-03-27T10:31:07.504Z,88.23
2024-03-27T10:33:35.929Z,88.51
2024-03-27T10:36:07.012Z,88.62
2024-03-27T10:38:39.014Z,88.87
2024-03-27T10:41:10.110Z,88.67
2024-03-27T10:43:42.096Z,88.71
2024-03-27T10:46:13.813Z,89.02
2024-03-27T10:48:43.624Z,88.82
2024-03-27T10:51:15.992Z,88.75
2024-03-27T10:53:48.304Z,88.39
2024-03-27T10:56:17.699Z,88.70
2024-03-27T10:58:47.074Z,88.79
2024-03-27T11:01:16.640Z,88.80
2024-03-27T11:03:45.005Z,88.87
2024-03-27T11:06:17.683Z,88.94
2024-03-27T11:08:49.347Z,89.25
2024-03-27T11:11:18.859Z,89.75
2024-03-27T11:13:52.705Z,89.50
2024-03-27T11:16:24.508Z,89.36
2024-03-27T11:18:55.172Z,89.58
2024-03-27T11:21:29.773Z,89.73
2024-03-27T11:24:05.624Z,89.55
2024-03-27T11:26:34.104Z,89.66
2024-03-27T11:29:02.380Z,89.80
2024-03-27T11:31:44.666Z,89.94
2024-03-27T11:34:13.176Z,90.41
2024-03-27T11:36:43.380Z,90.50
2024-03-27T11:39:12.481Z,90.95
2024-03-27T11:41:40.967Z,90.92
2024-03-27T11:44:09.339Z,90.76
2024-03-27T11:46:38.130Z,91.21
2024-03-27T11:49:07.537Z,91.49
2024-03-27T11:51:39.697Z,91.86
2024-03-27T11:54:08.719Z,92.27
2024-03-27T11:56:38.669Z,92.95
2024-03-27T11:59:06.582Z,92.69
2024-03-27T12:01:35.723Z,93.23
2024-03-27T12:04:04.913Z,93.72
2024-03-27T12:06:32.962Z,93.38
2024-03-27T12:09:05.104Z,93.65
2024-03-27T12:11:33.715Z,93.56
2024-03-27T12:14:02.159Z,93.82
2024-03-27T12:16:30.750Z,93.85
2024-03-27T12:19:00.043Z,93.85
2024-03-27T12:21:29.349Z,93.69
2024-03-27T12:23:58.135Z,94.02
2024-03-27T12:26:26.240Z,94.38
2024-03-27T12:28:55.460Z,94.49
2024-03-27T12:31:31.896Z,94.44
2024-03-27T12:34:00.267Z,94.58
2024-03-27T12:36:31.485Z,94.78
2024-03-27T12:39:00.110Z,94.75
2024-03-27T12:41:29.076Z,94.70
2024-03-27T12:43:58.284Z,94.08
2024-03-27T12:46:26.828Z,93.25
2024-03-27T12:48:55.977Z,90.50
2024-03-27T12:51:25.601Z,90.47
2024-03-27T12:53:54.463Z,90.71
2024-03-27T12:56:22.740Z,90.89
2024-03-27T12:58:51.761Z,91.40
2024-03-27T13:01:20.310Z,91.11
2024-03-27T13:03:49.235Z,90.47
2024-03-27T13:06:17.924Z,89.26
2024-03-27T13:08:46.260Z,89.79
2024-03-27T13:11:15.056Z,89.61
2024-03-27T13:13:43.952Z,89.64
2024-03-27T13:16:12.338Z,89.96
2024-03-27T13:18:41.332Z,90.29
2024-03-27T13:21:12.459Z,90.91
2024-03-27T13:23:41.291Z,91.19
2024-03-27T13:26:12.934Z,91.40
2024-03-27T13:28:41.145Z,92.43
2024-03-27T13:31:11.166Z,93.22
2024-03-27T13:33:40.053Z,92.81
2024-03-27T13:36:08.982Z,92.11
2024-03-27T13:38:37.785Z,91.93
2024-03-27T13:41:06.977Z,91.76
2024-03-27T13:43:36.697Z,92.35
2024-03-27T13:46:05.164Z,92.03
2024-03-27T13:48:35.329Z,92.24
2024-03-27T13:51:04.419Z,92.16
2024-03-27T13:53:33.148Z,92.16
2024-03-27T13:56:01.762Z,91.79
2024-03-27T13:58:30.056Z,92.13
2024-03-27T14:00:59.059Z,91.88
2024-03-27T14:03:27.613Z,91.93
2024-03-27T14:05:56.782Z,91.92
2024-03-27T14:08:25.707Z,91.84
2024-03-27T14:10:54.596Z,91.25
2024-03-27T14:13:23.125Z,90.83
2024-03-27T14:15:51.752Z,90.10
2024-03-27T14:18:19.912Z,89.88
2024-03-27T14:20:48.509Z,89.50
2024-03-27T14:23:17.210Z,88.94
2024-03-27T14:25:46.373Z,88.73
2024-03-27T14:28:14.879Z,88.70
2024-03-27T14:30:43.587Z,88.60
2024-03-27T14:33:11.743Z,88.24
2024-03-27T14:35:40.510Z,88.58
2024-03-27T14:38:10.232Z,88.19
2024-03-27T14:40:38.400Z,86.78
2024-03-27T14:43:07.499Z,86.44
2024-03-27T14:45:36.387Z,86.72
2024-03-27T14:48:05.364Z,87.00
2024-03-27T14:50:33.561Z,87.27
2024-03-27T14:53:02.062Z,87.44
2024-03-27T14:55:31.845Z,87.45
2024-03-27T14:58:00.175Z,87.60
2024-03-27T15:00:30.035Z,87.74
2024-03-27T15:02:58.821Z,86.95
2024-03-27T15:05:27.323Z,87.50
2024-03-27T15:07:55.727Z,87.50
2024-03-27T15:10:24.512Z,87.50
2024-03-27T15:12:53.400Z,87.24
2024-03-27T15:15:22.031Z,86.95
2024-03-27T15:17:50.453Z,87.23
2024-03-27T15:20:21.180Z,87.01
2024-03-27T15:22:50.049Z,86.60
2024-03-27T15:25:19.806Z,86.81
2024-03-27T15:27:47.937Z,86.90
2024-03-27T15:30:16.432Z,86.05
2024-03-27T15:32:45.616Z,86.18
2024-03-27T15:35:13.796Z,85.93
2024-03-27T15:37:42.062Z,85.40
2024-03-27T15:40:12.104Z,85.64
2024-03-27T15:42:40.792Z,85.33
2024-03-27T15:45:09.980Z,84.86
2024-03-27T15:47:39.507Z,84.37
2024-03-27T15:50:09.432Z,84.61
2024-03-27T15:52:38.221Z,84.79
2024-03-27T15:55:07.196Z,84.98
2024-03-27T15:57:35.796Z,85.05
2024-03-27T16:00:05.599Z,85.36
2024-03-27T16:02:34.238Z,85.80
2024-03-27T16:05:02.765Z,85.89
2024-03-27T16:07:31.649Z,85.62
2024-03-27T16:10:00.494Z,85.66
2024-03-27T16:12:29.232Z,85.85
2024-03-27T16:14:57.617Z,85.93
2024-03-27T16:17:26.600Z,86.03
2024-03-27T16:19:55.092Z,86.18
2024-03-27T16:22:23.557Z,86.19
2024-03-27T16:24:52.675Z,86.64
2024-03-27T16:27:21.278Z,86.73
2024-03-27T16:29:49.942Z,86.48
2024-03-27T16:32:18.500Z,87.20
2024-03-27T16:34:47.536Z,87.52
2024-03-27T16:37:16.724Z,87.47
2024-03-27T16:39:45.383Z,87.30
2024-03-27T16:42:13.890Z,87.03
2024-03-27T16:44:42.441Z,85.90
2024-03-27T16:47:10.977Z,86.01
2024-03-27T16:49:41.666Z,84.97
2024-03-27T16:52:10.744Z,84.56
2024-03-27T16:54:40.177Z,83.51
2024-03-27T16:57:10.480Z,83.62
2024-03-27T16:59:39.068Z,81.86
2024-03-27T17:02:08.300Z,79.59
2024-03-27T17:04:40.233Z,78.28
2024-03-27T17:07:09.333Z,75.16
2024-03-27T17:09:38.221Z,74.87
2024-03-27T17:12:08.854Z,73.83
2024-03-27T17:14:48.199Z,74.12
2024-03-27T17:17:17.598Z,74.73
2024-03-27T17:19:46.070Z,75.11
2024-03-27T17:22:14.447Z,74.52
2024-03-27T17:24:43.206Z,75.25
2024-03-27T17:27:11.401Z,75.63
2024-03-27T17:29:39.361Z,75.79
2024-03-27T17:35:36.559Z,75.75
2024-03-27T17:38:05.545Z,75.12
2024-03-27T17:40:34.221Z,75.80
2024-03-27T17:43:03.563Z,75.18
2024-03-27T17:45:31.958Z,75.32
2024-03-27T17:48:03.728Z,74.26
2024-03-27T17:50:32.670Z,74.41
2024-03-27T17:53:03.080Z,75.50
2024-03-27T17:55:38.163Z,75.86
2024-03-27T17:58:06.601Z,75.88
2024-03-27T18:00:35.304Z,75.08
2024-03-27T18:03:04.233Z,75.10
2024-03-27T18:05:33.226Z,74.71
2024-03-27T18:08:03.093Z,74.16
2024-03-27T18:10:31.580Z,74.95
2024-03-27T18:13:00.584Z,74.84
2024-03-27T18:15:28.855Z,75.29
2024-03-27T18:17:57.811Z,75.31
2024-03-27T18:20:28.662Z,75.36
2024-03-27T18:22:57.887Z,75.24
2024-03-27T18:25:26.393Z,75.81
2024-03-27T18:27:54.734Z,75.46
2024-03-27T18:30:23.399Z,75.35
2024-03-27T18:32:51.680Z,75.35
2024-03-27T18:35:20.384Z,75.58
2024-03-27T18:37:51.692Z,75.61
2024-03-27T18:40:24.504Z,75.55
2024-03-27T18:42:53.005Z,75.78
2024-03-27T18:45:21.568Z,75.36
2024-03-27T18:47:50.183Z,75.57
2024-03-27T18:50:19.055Z,75.47
2024-03-27T18:52:49.688Z,75.75
2024-03-27T18:55:18.446Z,74.95
2024-03-27T18:57:47.510Z,74.85
2024-03-27T19:00:16.886Z,75.12
2024-03-27T19:02:45.474Z,74.89
2024-03-27T19:05:14.332Z,75.10
2024-03-27T19:07:43.369Z,74.71
2024-03-27T19:10:12.051Z,74.67
2024-03-27T19:12:40.824Z,74.21
2024-03-27T19:15:09.921Z,74.44
2024-03-27T19:17:38.874Z,74.68
2024-03-27T19:20:08.106Z,74.04
2024-03-27T19:22:37.190Z,74.28
2024-03-27T19:25:07.888Z,74.49
2024-03-27T19:27:36.824Z,74.32
2024-03-27T19:30:06.260Z,74.03
2024-03-27T19:32:36.242Z,73.95
2024-03-27T19:35:06.189Z,74.18
2024-03-27T19:37:34.634Z,74.30
2024-03-27T19:40:04.493Z,74.29
2024-03-27T19:42:33.554Z,74.37
2024-03-27T19:45:01.823Z,74.39
2024-03-27T19:47:30.595Z,74.66
2024-03-27T19:49:58.960Z,75.10
2024-03-27T19:52:32.271Z,75.51
2024-03-27T19:55:08.071Z,75.39
2024-03-27T19:57:36.418Z,75.75
2024-03-27T20:00:06.387Z,76.17
2024-03-27T20:02:34.894Z,76.23
2024-03-27T20:05:03.716Z,76.41
2024-03-27T20:07:34.896Z,76.63
2024-03-27T20:10:05.454Z,76.93
2024-03-27T20:12:34.390Z,77.11
2024-03-27T20:15:03.036Z,77.09
2024-03-27T20:17:31.725Z,77.27
2024-03-27T20:20:01.274Z,77.36
2024-03-27T20:22:30.416Z,77.38
2024-03-27T20:24:59.001Z,77.44
2024-03-27T20:27:27.289Z,77.42
2024-03-27T20:29:56.175Z,77.39
2024-03-27T20:32:24.695Z,77.54
2024-03-27T20:34:53.341Z,77.81
2024-03-27T20:37:22.746Z,77.99
2024-03-27T20:39:52.156Z,78.41
2024-03-27T20:42:21.047Z,79.09
2024-03-27T20:44:50.256Z,78.89
2024-03-27T20:47:19.024Z,79.00
2024-03-27T20:49:49.895Z,79.38
2024-03-27T20:52:18.268Z,79.38
2024-03-27T20:54:46.315Z,79.64
2024-03-27T20:57:16.538Z,80.14
2024-03-27T20:59:44.820Z,80.09
2024-03-27T21:02:13.637Z,79.94
2024-03-27T21:04:42.384Z,80.04
2024-03-27T21:07:11.176Z,80.10
2024-03-27T21:10:01.741Z,80.21
2024-03-27T21:12:34.035Z,80.59
2024-03-27T21:15:02.425Z,80.99
2024-03-27T21:17:31.222Z,81.38
2024-03-27T21:20:08.287Z,81.78
2024-03-27T21:22:36.703Z,82.35
2024-03-27T21:25:05.987Z,83.00
2024-03-27T21:27:35.382Z,83.37
2024-03-27T21:30:04.731Z,83.91
2024-03-27T21:32:33.182Z,83.76
2024-03-27T21:35:01.552Z,84.61
2024-03-27T21:37:30.428Z,84.78
2024-03-27T21:39:59.745Z,85.11
2024-03-27T21:42:28.628Z,85.16
2024-03-27T21:44:58.252Z,85.60
2024-03-27T21:47:26.815Z,86.23
2024-03-27T21:49:57.545Z,86.12
2024-03-27T21:52:26.363Z,87.40
2024-03-27T21:54:56.370Z,87.49
2024-03-27T21:57:25.143Z,87.61
2024-03-27T21:59:53.209Z,87.65
2024-03-27T22:02:22.715Z,88.31
2024-03-27T22:04:50.795Z,89.38
2024-03-27T22:07:18.882Z,90.00
2024-03-27T22:09:48.367Z,89.65
2024-03-27T22:12:16.546Z,88.97
2024-03-27T22:14:44.498Z,89.10
2024-03-27T22:17:12.420Z,89.10
2024-03-27T22:19:40.246Z,88.91
2024-03-27T22:22:08.236Z,88.94
2024-03-27T22:24:38.440Z,88.89
2024-03-27T22:27:06.748Z,89.34
2024-03-27T22:29:34.790Z,89.07
2024-03-27T22:32:03.264Z,88.89
2024-03-27T22:34:31.141Z,88.75
2024-03-27T22:36:58.995Z,88.85
2024-03-27T22:39:26.884Z,88.99
2024-03-27T22:41:55.270Z,89.04
2024-03-27T22:44:24.228Z,88.84
2024-03-27T22:46:52.209Z,88.40
2024-03-27T22:49:20.071Z,88.63
2024-03-27T22:51:49.419Z,88.47
2024-03-27T22:54:17.339Z,88.45
2024-03-27T22:56:46.915Z,88.27
2024-03-27T22:59:18.102Z,88.25
2024-03-27T23:01:46.380Z,88.07
2024-03-27T23:04:15.214Z,87.84
2024-03-27T23:06:43.134Z,87.85
2024-03-27T23:09:10.689Z,87.68
2024-03-27T23:11:39.166Z,87.44
2024-03-27T23:14:07.034Z,87.38
2024-03-27T23:16:35.316Z,87.47
2024-03-27T23:19:03.269Z,87.29
2024-03-27T23:21:30.732Z,87.54
2024-03-27T23:23:59.113Z,87.58
2024-03-27T23:26:27.106Z,87.59
2024-03-27T23:28:57.407Z,87.59
2024-03-27T23:31:25.582Z,87.62
2024-03-27T23:33:56.314Z,87.36
2024-03-27T23:36:24.359Z,87.52
2024-03-27T23:38:53.979Z,87.40
2024-03-27T23:41:21.976Z,87.42
2024-03-27T23:43:49.628Z,87.13
2024-03-27T23:46:18.608Z,86.97
2024-03-27T23:48:46.696Z,86.59
2024-03-27T23:51:14.858Z,86.50
2024-03-27T23:53:44.273Z,86.59
2024-03-27T23:56:12.127Z,86.52
2024-03-27T23:58:40.005Z,86.43
